Time;durP1;ratioP1;P1;durP2;ratioP2;P2;SDS_P1;SDS_P2;PMS_P1;PMS_P2;Temp;Humidity;BMP_temperature;BMP_pressure;BME280_temperature;BME280_humidity;BME280_pressure;Samples;Min_cycle;Max_cycle;Signal;HPM_P1;HPM_P2
2023/10/28 00:00:58;;;;;;;;;;;12.70;99.90;;;;;;7331866;19;109008;-66
2023/10/28 00:03:25;;;;;;;;;;;12.80;99.90;;;;;;7326198;19;110125;-66
2023/10/28 00:05:53;;;;;;;;;;;12.80;99.90;;;;;;7330675;19;110085;-66
2023/10/28 00:08:20;;;;;;;;;;;12.80;99.90;;;;;;7328528;19;110618;-67
2023/10/28 00:10:48;;;;;;;;;;;12.80;99.90;;;;;;7329939;19;110096;-66
2023/10/28 00:13:15;;;;;;;;;;;12.80;99.90;;;;;;7326118;19;110253;-66
2023/10/28 00:15:42;;;;;;;;;;;12.90;99.90;;;;;;7325884;19;109449;-66
2023/10/28 00:18:14;;;;;;;;;;;12.80;99.90;;;;;;7327817;19;110327;-66
2023/10/28 00:20:44;;;;;;;;;;;12.90;99.90;;;;;;7325175;19;109297;-67
2023/10/28 00:23:13;;;;;;;;;;;12.80;99.90;;;;;;7330496;19;109734;-66
2023/10/28 00:25:41;;;;;;;;;;;12.90;99.90;;;;;;7333253;19;109666;-66
2023/10/28 00:28:09;;;;;;;;;;;12.80;99.90;;;;;;7338229;19;108429;-66
2023/10/28 00:30:39;;;;;;;;;;;12.80;99.90;;;;;;7329851;19;111261;-66
2023/10/28 00:33:06;;;;;;;;;;;12.90;99.90;;;;;;7332368;19;110109;-66
2023/10/28 00:35:34;;;;;;;;;;;12.80;99.90;;;;;;7329692;19;112009;-66
2023/10/28 00:38:01;;;;;;;;;;;12.90;99.90;;;;;;7329654;19;109751;-67
2023/10/28 00:40:30;;;;;;;;;;;12.80;99.90;;;;;;7321673;19;108916;-66
2023/10/28 00:43:00;;;;;;;;;;;12.80;99.90;;;;;;7327518;19;109155;-66
2023/10/28 00:45:28;;;;;;;;;;;12.80;99.90;;;;;;7329588;19;110821;-66
2023/10/28 00:47:56;;;;;;;;;;;12.80;99.90;;;;;;7330167;19;108823;-66
2023/10/28 00:50:23;;;;;;;;;;;12.80;99.90;;;;;;7336317;19;111329;-66
2023/10/28 00:52:54;;;;;;;;;;;12.90;99.90;;;;;;7331608;19;109121;-66
2023/10/28 00:55:23;;;;;;;;;;;12.80;99.90;;;;;;7330947;19;110175;-66
2023/10/28 00:57:51;;;;;;;;;;;12.80;99.90;;;;;;7332040;19;109850;-67
2023/10/28 01:00:20;;;;;;;;;;;12.80;99.90;;;;;;7328376;19;108968;-66
2023/10/28 01:02:48;;;;;;;;;;;12.80;99.90;;;;;;7331481;19;110874;-66
2023/10/28 01:05:16;;;;;;;;;;;12.90;99.90;;;;;;7330362;19;109094;-66
2023/10/28 01:07:44;;;;;;;;;;;12.90;99.90;;;;;;7332295;19;109296;-66
2023/10/28 01:10:12;;;;;;;;;;;12.80;99.90;;;;;;7328615;19;108959;-66
2023/10/28 01:12:39;;;;;;;;;;;12.80;99.90;;;;;;7338792;19;109610;-66
2023/10/28 01:15:07;;;;;;;;;;;12.80;99.90;;;;;;7330666;19;110182;-66
2023/10/28 01:17:35;;;;;;;;;;;12.80;99.90;;;;;;7325164;19;109179;-67
2023/10/28 01:20:02;;;;;;;;;;;12.80;99.90;;;;;;7326677;19;109361;-66
2023/10/28 01:22:30;;;;;;;;;;;12.80;99.90;;;;;;7329547;19;108821;-66
2023/10/28 01:24:57;;;;;;;;;;;12.80;99.90;;;;;;7330221;19;113933;-66
2023/10/28 01:27:24;;;;;;;;;;;12.80;99.90;;;;;;7334550;19;108594;-66
2023/10/28 01:29:51;;;;;;;;;;;12.80;99.90;;;;;;7337141;19;109323;-67
2023/10/28 01:32:18;;;;;;;;;;;12.80;99.90;;;;;;7337038;19;110896;-66
2023/10/28 01:34:51;;;;;;;;;;;12.80;99.90;;;;;;7341867;19;108823;-66
2023/10/28 01:37:18;;;;;;;;;;;12.80;99.90;;;;;;7338621;19;109294;-66
2023/10/28 01:39:48;;;;;;;;;;;12.80;99.90;;;;;;7334772;19;109783;-66
2023/10/28 01:42:15;;;;;;;;;;;12.80;99.90;;;;;;7334626;19;109435;-67
2023/10/28 01:44:43;;;;;;;;;;;12.80;99.90;;;;;;7335254;19;109205;-67
2023/10/28 01:47:10;;;;;;;;;;;12.70;99.90;;;;;;7335134;19;109081;-68
2023/10/28 01:49:38;;;;;;;;;;;12.80;99.90;;;;;;7336838;19;109000;-67
2023/10/28 01:52:07;;;;;;;;;;;12.70;99.90;;;;;;7333853;19;109103;-68
2023/10/28 01:54:35;;;;;;;;;;;12.70;99.90;;;;;;7341167;19;109979;-67
2023/10/28 01:57:05;;;;;;;;;;;12.70;99.90;;;;;;7332360;19;110576;-67
2023/10/28 01:59:33;;;;;;;;;;;12.70;99.90;;;;;;7337337;19;110714;-67
2023/10/28 02:02:03;;;;;;;;;;;12.70;99.90;;;;;;7331351;19;109485;-67
2023/10/28 02:04:31;;;;;;;;;;;12.70;99.90;;;;;;7337689;19;112838;-68
2023/10/28 02:06:58;;;;;;;;;;;12.70;99.90;;;;;;7333117;19;109575;-67
2023/10/28 02:09:26;;;;;;;;;;;12.60;99.90;;;;;;7332211;19;109693;-67
2023/10/28 02:11:54;;;;;;;;;;;12.60;99.90;;;;;;7334217;19;110204;-67
2023/10/28 02:14:23;;;;;;;;;;;12.50;99.90;;;;;;7333537;19;109232;-68
2023/10/28 02:16:50;;;;;;;;;;;12.50;99.90;;;;;;7339887;19;109187;-67
2023/10/28 02:19:17;;;;;;;;;;;12.50;99.90;;;;;;7334106;19;108655;-68
2023/10/28 02:21:45;;;;;;;;;;;12.40;99.90;;;;;;7331167;19;108858;-67
2023/10/28 02:24:19;;;;;;;;;;;12.40;99.90;;;;;;7334167;19;109083;-67
2023/10/28 02:26:47;;;;;;;;;;;12.40;99.90;;;;;;7336086;19;112381;-67
2023/10/28 02:29:14;;;;;;;;;;;12.40;99.90;;;;;;7335451;19;109414;-69
2023/10/28 02:31:41;;;;;;;;;;;12.30;99.90;;;;;;7333527;19;110693;-68
2023/10/28 02:34:10;;;;;;;;;;;12.30;99.90;;;;;;7333326;19;108842;-68
2023/10/28 02:36:39;;;;;;;;;;;12.30;99.90;;;;;;7332837;19;111138;-67
2023/10/28 02:39:06;;;;;;;;;;;12.30;99.90;;;;;;7339605;19;111221;-70
2023/10/28 02:41:34;;;;;;;;;;;12.30;99.90;;;;;;7335735;19;109636;-68
2023/10/28 02:44:03;;;;;;;;;;;12.30;99.90;;;;;;7335764;19;109603;-69
2023/10/28 02:46:30;;;;;;;;;;;12.30;99.90;;;;;;7337320;19;108868;-67
2023/10/28 02:48:57;;;;;;;;;;;12.30;99.90;;;;;;7332799;19;109402;-67
2023/10/28 02:51:24;;;;;;;;;;;12.30;99.90;;;;;;7332723;19;110253;-67
2023/10/28 02:53:52;;;;;;;;;;;12.30;99.90;;;;;;7335034;19;110822;-67
2023/10/28 02:56:19;;;;;;;;;;;12.30;99.90;;;;;;7333658;19;110378;-67
2023/10/28 02:58:46;;;;;;;;;;;12.30;99.90;;;;;;7335861;19;109130;-69
2023/10/28 03:01:13;;;;;;;;;;;12.30;99.90;;;;;;7338281;19;108814;-67
2023/10/28 03:03:41;;;;;;;;;;;12.30;99.90;;;;;;7329917;19;109759;-68
2023/10/28 03:06:08;;;;;;;;;;;12.30;99.90;;;;;;7332415;19;108487;-67
2023/10/28 03:08:36;;;;;;;;;;;12.30;99.90;;;;;;7335692;19;109507;-69
2023/10/28 03:11:03;;;;;;;;;;;12.30;99.90;;;;;;7333617;19;109304;-67
2023/10/28 03:13:30;;;;;;;;;;;12.30;99.90;;;;;;7333520;19;109120;-67
2023/10/28 03:15:58;;;;;;;;;;;12.30;99.90;;;;;;7332491;19;108910;-67
2023/10/28 03:18:25;;;;;;;;;;;12.30;99.90;;;;;;7332500;19;109620;-67
2023/10/28 03:20:55;;;;;;;;;;;12.40;99.90;;;;;;7332786;19;111688;-67
2023/10/28 03:23:22;;;;;;;;;;;12.40;99.90;;;;;;7331857;19;109552;-67
2023/10/28 03:25:50;;;;;;;;;;;12.40;99.90;;;;;;7332223;19;111551;-67
2023/10/28 03:28:17;;;;;;;;;;;12.40;99.90;;;;;;7335204;19;111688;-67
2023/10/28 03:30:44;;;;;;;;;;;12.40;99.90;;;;;;7333398;19;109445;-67
2023/10/28 03:33:11;;;;;;;;;;;12.40;99.90;;;;;;7335264;19;108979;-67
2023/10/28 03:35:38;;;;;;;;;;;12.30;99.90;;;;;;7331980;19;108705;-67
2023/10/28 03:38:05;;;;;;;;;;;12.40;99.90;;;;;;7331164;19;109679;-72
2023/10/28 03:40:32;;;;;;;;;;;12.40;99.90;;;;;;7332802;19;109918;-74
2023/10/28 03:43:00;;;;;;;;;;;12.40;99.90;;;;;;7338321;19;109303;-72
2023/10/28 03:45:28;;;;;;;;;;;12.40;99.90;;;;;;7334746;19;108625;-75
2023/10/28 03:47:55;;;;;;;;;;;12.40;99.90;;;;;;7332060;19;109422;-75
2023/10/28 03:50:22;;;;;;;;;;;12.40;99.90;;;;;;7333160;19;109187;-76
2023/10/28 03:52:50;;;;;;;;;;;12.40;99.90;;;;;;7331596;19;109258;-75
2023/10/28 03:55:17;;;;;;;;;;;12.40;99.90;;;;;;7325764;19;109985;-76
2023/10/28 03:57:44;;;;;;;;;;;12.40;99.90;;;;;;7332615;19;109155;-77
2023/10/28 04:00:11;;;;;;;;;;;12.40;99.90;;;;;;7329613;19;109016;-68
2023/10/28 04:02:38;;;;;;;;;;;12.40;99.90;;;;;;7333263;19;109062;-69
2023/10/28 04:05:06;;;;;;;;;;;12.40;99.90;;;;;;7335183;19;110607;-86
2023/10/28 04:07:33;;;;;;;;;;;12.40;99.90;;;;;;7363652;19;109082;-86
2023/10/28 04:10:07;;;;;;;;;;;12.40;99.90;;;;;;7359733;19;109307;-86
2023/10/28 04:12:36;;;;;;;;;;;12.50;99.90;;;;;;7328047;19;109449;-87
2023/10/28 04:15:06;;;;;;;;;;;12.50;99.90;;;;;;7319326;19;110661;-86
2023/10/28 04:17:34;;;;;;;;;;;12.50;99.90;;;;;;7320939;19;111142;-86
2023/10/28 04:20:03;;;;;;;;;;;12.50;99.90;;;;;;7324254;19;110222;-86
2023/10/28 04:25:12;;;;;;;;;;;12.50;99.90;;;;;;7335330;19;113113;-93
2023/10/28 04:27:39;;;;;;;;;;;12.60;99.90;;;;;;7341993;19;108349;-92
2023/10/28 04:30:08;;;;;;;;;;;12.60;99.90;;;;;;7336697;19;112169;-93
2023/10/28 04:32:35;;;;;;;;;;;12.60;99.90;;;;;;7339088;19;109503;-93
2023/10/28 04:35:02;;;;;;;;;;;12.60;99.90;;;;;;7335644;19;110454;-93
2023/10/28 04:37:49;;;;;;;;;;;12.60;99.90;;;;;;7339259;19;114058;-92
2023/10/28 04:40:16;;;;;;;;;;;12.60;99.90;;;;;;7339775;19;108270;-92
2023/10/28 04:42:44;;;;;;;;;;;12.60;99.90;;;;;;7340304;19;108702;-93
2023/10/28 04:45:11;;;;;;;;;;;12.60;99.90;;;;;;7335345;19;112276;-93
2023/10/28 04:47:38;;;;;;;;;;;12.60;99.90;;;;;;7338287;19;109305;-93
2023/10/28 04:50:06;;;;;;;;;;;12.60;99.90;;;;;;7342135;19;109602;-93
2023/10/28 04:52:33;;;;;;;;;;;12.70;99.90;;;;;;7334606;19;109114;-93
2023/10/28 04:55:03;;;;;;;;;;;12.70;99.90;;;;;;7334849;19;109264;-92
2023/10/28 04:57:30;;;;;;;;;;;12.70;99.90;;;;;;7334921;19;112642;-93
2023/10/28 04:59:57;;;;;;;;;;;12.60;99.90;;;;;;7340718;19;108506;-93
2023/10/28 05:02:24;;;;;;;;;;;12.70;99.90;;;;;;7339083;19;110416;-93
2023/10/28 05:04:51;;;;;;;;;;;12.70;99.90;;;;;;7339634;19;110289;-93
2023/10/28 05:07:19;;;;;;;;;;;12.70;99.90;;;;;;7342353;19;108891;-93
2023/10/28 05:09:46;;;;;;;;;;;12.70;99.90;;;;;;7341011;19;111263;-93
2023/10/28 05:12:13;;;;;;;;;;;12.70;99.90;;;;;;7346976;19;109926;-94
2023/10/28 05:14:40;;;;;;;;;;;12.70;99.90;;;;;;7341491;19;111510;-93
2023/10/28 05:17:07;;;;;;;;;;;12.70;99.90;;;;;;7339635;19;113123;-92
2023/10/28 05:19:34;;;;;;;;;;;12.70;99.90;;;;;;7340384;19;110767;-93
2023/10/28 05:22:03;;;;;;;;;;;12.70;99.90;;;;;;7341657;19;110669;-93
2023/10/28 05:24:30;;;;;;;;;;;12.70;99.90;;;;;;7338520;19;113055;-92
2023/10/28 05:26:58;;;;;;;;;;;12.70;99.90;;;;;;7338736;19;108548;-94
2023/10/28 05:29:25;;;;;;;;;;;12.70;99.90;;;;;;7341771;19;108432;-93
2023/10/28 05:31:56;;;;;;;;;;;12.80;99.90;;;;;;7341298;19;111566;-92
2023/10/28 05:34:23;;;;;;;;;;;12.80;99.90;;;;;;7344171;19;109894;-93
2023/10/28 05:36:51;;;;;;;;;;;12.70;99.90;;;;;;7339435;19;113367;-92
2023/10/28 05:39:18;;;;;;;;;;;12.70;99.90;;;;;;7343763;19;108432;-92
2023/10/28 05:41:45;;;;;;;;;;;12.70;99.90;;;;;;7341810;19;111748;-94
2023/10/28 05:44:12;;;;;;;;;;;12.70;99.90;;;;;;7342805;19;109413;-93
2023/10/28 05:46:39;;;;;;;;;;;12.70;99.90;;;;;;7341429;19;109008;-94
2023/10/28 05:49:07;;;;;;;;;;;12.70;99.90;;;;;;7341802;19;109149;-94
2023/10/28 05:51:36;;;;;;;;;;;12.70;99.90;;;;;;7339302;19;113025;-93
2023/10/28 05:54:04;;;;;;;;;;;12.70;99.90;;;;;;7343355;19;110133;-93
2023/10/28 05:56:31;;;;;;;;;;;12.70;99.90;;;;;;7339097;19;111839;-93
2023/10/28 05:58:58;;;;;;;;;;;12.70;99.90;;;;;;7338429;19;108154;-93
2023/10/28 06:01:25;;;;;;;;;;;12.70;99.90;;;;;;7335825;19;111907;-93
2023/10/28 06:03:52;;;;;;;;;;;12.70;99.90;;;;;;7337397;19;110329;-91
2023/10/28 06:06:19;;;;;;;;;;;12.70;99.90;;;;;;7337688;19;108879;-93
2023/10/28 06:08:47;;;;;;;;;;;12.80;99.90;;;;;;7334360;19;111010;-93
2023/10/28 06:11:14;;;;;;;;;;;12.70;99.90;;;;;;7334733;19;112668;-94
2023/10/28 06:13:42;;;;;;;;;;;12.70;99.90;;;;;;7336331;19;108778;-94
2023/10/28 06:16:10;;;;;;;;;;;12.70;99.90;;;;;;7343337;19;108664;-94
2023/10/28 06:18:37;;;;;;;;;;;12.70;99.90;;;;;;7338907;19;114676;-93
2023/10/28 06:21:05;;;;;;;;;;;12.70;99.90;;;;;;7339331;19;109375;-94
2023/10/28 06:23:32;;;;;;;;;;;12.70;99.90;;;;;;7336805;19;112621;-91
2023/10/28 06:25:59;;;;;;;;;;;12.80;99.90;;;;;;7340248;19;108668;-92
2023/10/28 06:28:27;;;;;;;;;;;12.80;99.90;;;;;;7337979;19;112194;-92
2023/10/28 06:30:55;;;;;;;;;;;12.80;99.90;;;;;;7335863;19;108997;-93
2023/10/28 06:33:24;;;;;;;;;;;12.80;99.90;;;;;;7337599;19;109266;-93
2023/10/28 06:35:51;;;;;;;;;;;12.80;99.90;;;;;;7338275;19;110220;-93
2023/10/28 06:38:18;;;;;;;;;;;12.80;99.90;;;;;;7340725;19;111726;-92
2023/10/28 06:40:49;;;;;;;;;;;12.80;99.90;;;;;;7336890;19;109173;-93
2023/10/28 06:43:17;;;;;;;;;;;12.80;99.90;;;;;;7333684;19;112567;-91
2023/10/28 06:45:45;;;;;;;;;;;12.80;99.90;;;;;;7335551;19;109611;-93
2023/10/28 06:48:12;;;;;;;;;;;12.80;99.90;;;;;;7335780;19;111979;-91
2023/10/28 06:50:39;;;;;;;;;;;12.90;99.90;;;;;;7336574;19;110389;-92
2023/10/28 06:53:09;;;;;;;;;;;12.80;99.90;;;;;;7336703;19;110578;-92
2023/10/28 06:55:36;;;;;;;;;;;12.90;99.90;;;;;;7335323;19;110943;-92
2023/10/28 06:58:03;;;;;;;;;;;12.90;99.90;;;;;;7331501;19;112341;-92
2023/10/28 07:00:31;;;;;;;;;;;12.90;99.90;;;;;;7339723;19;108497;-92
2023/10/28 07:02:59;;;;;;;;;;;12.90;99.90;;;;;;7333472;19;109580;-92
2023/10/28 07:05:26;;;;;;;;;;;13.00;99.90;;;;;;7334046;19;109967;-93
2023/10/28 07:07:56;;;;;;;;;;;12.90;99.90;;;;;;7337206;19;108777;-91
2023/10/28 07:10:23;;;;;;;;;;;12.90;99.90;;;;;;7335594;19;109531;-92
2023/10/28 07:12:50;;;;;;;;;;;12.90;99.90;;;;;;7337167;19;108589;-92
2023/10/28 07:34:57;;;;;;;;;;;13.20;99.90;;;;;;7322251;19;109823;-67
2023/10/28 07:37:25;;;;;;;;;;;13.20;99.90;;;;;;7328581;19;109205;-67
2023/10/28 07:39:52;;;;;;;;;;;13.20;99.90;;;;;;7329837;19;109217;-67
2023/10/28 07:42:22;;;;;;;;;;;13.30;99.90;;;;;;7332558;19;111381;-67
2023/10/28 07:44:51;;;;;;;;;;;13.30;99.90;;;;;;7330891;19;108862;-67
2023/10/28 07:47:18;;;;;;;;;;;13.40;99.90;;;;;;7334427;19;110245;-67
2023/10/28 07:49:46;;;;;;;;;;;13.40;99.90;;;;;;7331101;19;109177;-67
2023/10/28 07:52:17;;;;;;;;;;;13.40;99.90;;;;;;7329958;19;128772;-67
2023/10/28 07:54:44;;;;;;;;;;;13.50;99.90;;;;;;7330946;19;109585;-67
2023/10/28 07:57:11;;;;;;;;;;;13.50;99.90;;;;;;7330344;19;110436;-67
2023/10/28 07:59:38;;;;;;;;;;;13.60;99.90;;;;;;7331732;19;109788;-67
2023/10/28 08:02:05;;;;;;;;;;;13.60;99.90;;;;;;7329497;19;109582;-67
2023/10/28 08:04:33;;;;;;;;;;;13.70;99.90;;;;;;7328234;19;110918;-67
2023/10/28 08:07:00;;;;;;;;;;;13.70;99.90;;;;;;7330062;19;110920;-68
2023/10/28 08:09:28;;;;;;;;;;;13.70;99.90;;;;;;7330790;19;109068;-67
2023/10/28 08:11:55;;;;;;;;;;;13.70;99.90;;;;;;7326544;19;110645;-67
2023/10/28 08:14:22;;;;;;;;;;;13.70;99.90;;;;;;7327579;19;110377;-64
2023/10/28 08:16:49;;;;;;;;;;;13.80;99.90;;;;;;7327854;19;108684;-64
2023/10/28 08:19:17;;;;;;;;;;;13.70;99.90;;;;;;7331785;19;113190;-64
2023/10/28 08:21:44;;;;;;;;;;;13.70;99.90;;;;;;7329223;19;114347;-64
2023/10/28 08:24:15;;;;;;;;;;;13.80;99.90;;;;;;7329771;19;110105;-64
2023/10/28 08:26:42;;;;;;;;;;;13.80;99.90;;;;;;7330293;19;109815;-64
2023/10/28 08:29:11;;;;;;;;;;;13.80;99.90;;;;;;7337143;19;108734;-65
2023/10/28 08:31:38;;;;;;;;;;;13.80;99.90;;;;;;7333634;19;109347;-64
2023/10/28 08:34:06;;;;;;;;;;;13.90;99.90;;;;;;7336806;19;110898;-64
2023/10/28 08:36:34;;;;;;;;;;;13.90;99.90;;;;;;7340494;19;110586;-64
2023/10/28 08:39:03;;;;;;;;;;;13.90;99.90;;;;;;7336463;19;110344;-64
2023/10/28 08:41:31;;;;;;;;;;;13.90;99.90;;;;;;7340428;19;110174;-64
2023/10/28 08:43:59;;;;;;;;;;;13.90;99.90;;;;;;7339230;19;108725;-64
2023/10/28 08:46:27;;;;;;;;;;;14.00;99.90;;;;;;7338817;19;109358;-68
2023/10/28 08:48:56;;;;;;;;;;;14.00;99.90;;;;;;7338544;19;109211;-64
2023/10/28 08:51:23;;;;;;;;;;;14.00;99.90;;;;;;7345986;19;108742;-64
2023/10/28 08:53:54;;;;;;;;;;;14.10;99.90;;;;;;7335985;19;109553;-64
2023/10/28 08:56:23;;;;;;;;;;;14.10;99.90;;;;;;7339062;19;109075;-64
2023/10/28 08:58:52;;;;;;;;;;;14.10;99.90;;;;;;7330389;19;110297;-64
2023/10/28 09:01:27;;;;;;;;;;;14.20;99.90;;;;;;7336732;19;110436;-64
2023/10/28 09:03:57;;;;;;;;;;;14.20;99.90;;;;;;7335670;19;108637;-64
2023/10/28 09:06:24;;;;;;;;;;;14.20;99.90;;;;;;7334198;19;111029;-64
2023/10/28 09:08:51;;;;;;;;;;;14.30;99.90;;;;;;7334539;19;109522;-64
2023/10/28 09:11:19;;;;;;;;;;;14.30;99.90;;;;;;7337343;19;110771;-64
2023/10/28 09:13:46;;;;;;;;;;;14.40;99.90;;;;;;7343342;19;110154;-64
2023/10/28 09:16:16;;;;;;;;;;;14.40;99.90;;;;;;7334211;19;108561;-64
2023/10/28 09:18:44;;;;;;;;;;;14.40;99.90;;;;;;7336935;19;109910;-64
2023/10/28 09:21:11;;;;;;;;;;;14.50;99.90;;;;;;7335199;19;108890;-64
2023/10/28 09:23:39;;;;;;;;;;;14.60;99.90;;;;;;7336669;19;109857;-64
2023/10/28 09:26:06;;;;;;;;;;;14.70;99.90;;;;;;7335895;19;110065;-64
2023/10/28 09:28:34;;;;;;;;;;;14.80;99.90;;;;;;7338995;19;108931;-64
2023/10/28 09:31:01;;;;;;;;;;;14.90;99.90;;;;;;7332058;19;110512;-64
2023/10/28 09:33:30;;;;;;;;;;;14.90;99.90;;;;;;7336727;19;109745;-64
2023/10/28 09:35:58;;;;;;;;;;;14.90;99.90;;;;;;7341175;19;108570;-64
2023/10/28 09:38:26;;;;;;;;;;;15.00;99.90;;;;;;7334180;19;109081;-65
2023/10/28 09:40:53;;;;;;;;;;;15.00;99.90;;;;;;7338230;19;109455;-64
2023/10/28 09:43:22;;;;;;;;;;;15.00;99.90;;;;;;7335765;19;108568;-65
2023/10/28 09:45:50;;;;;;;;;;;15.10;99.90;;;;;;7334569;19;110244;-64
2023/10/28 09:48:18;;;;;;;;;;;15.10;99.90;;;;;;7333555;19;109179;-64
2023/10/28 09:50:52;;;;;;;;;;;15.20;99.90;;;;;;7335485;19;108643;-65
2023/10/28 09:53:35;;;;;;;;;;;15.20;99.90;;;;;;7330010;19;109125;-64
2023/10/28 09:56:03;;;;;;;;;;;15.30;99.90;;;;;;7333531;19;108523;-65
2023/10/28 09:58:31;;;;;;;;;;;15.30;99.90;;;;;;7335851;19;110023;-64
2023/10/28 10:01:22;;;;;;;;;;;15.30;99.90;;;;;;7334758;19;109973;-64
2023/10/28 10:03:50;;;;;;;;;;;15.40;99.90;;;;;;7326897;19;111671;-64
2023/10/28 10:06:17;;;;;;;;;;;15.40;99.90;;;;;;7319368;19;111626;-65
2023/10/28 10:08:49;;;;;;;;;;;15.40;99.90;;;;;;7323380;19;110587;-64
2023/10/28 10:11:22;;;;;;;;;;;15.50;99.90;;;;;;7329083;19;109240;-67
2023/10/28 10:13:50;;;;;;;;;;;15.50;99.90;;;;;;7332484;19;109339;-63
2023/10/28 10:16:30;;;;;;;;;;;15.60;99.90;;;;;;7328414;19;108474;-64
2023/10/28 10:18:58;;;;;;;;;;;15.60;99.90;;;;;;7335044;19;108991;-64
2023/10/28 10:21:30;;;;;;;;;;;15.70;99.90;;;;;;7324122;19;109705;-64
2023/10/28 10:24:02;;;;;;;;;;;15.70;99.90;;;;;;7329155;19;108800;-64
2023/10/28 10:26:33;;;;;;;;;;;15.70;99.90;;;;;;7330220;19;109360;-64
2023/10/28 10:29:03;;;;;;;;;;;15.70;99.90;;;;;;7326792;19;110431;-64
2023/10/28 10:31:35;;;;;;;;;;;15.70;99.90;;;;;;7330991;19;111421;-64
2023/10/28 10:34:09;;;;;;;;;;;15.70;99.90;;;;;;7329572;19;109515;-64
2023/10/28 10:36:43;;;;;;;;;;;15.70;99.90;;;;;;7330010;19;109550;-69
2023/10/28 10:39:15;;;;;;;;;;;15.70;99.90;;;;;;7329618;19;110471;-65
2023/10/28 10:41:46;;;;;;;;;;;15.70;99.90;;;;;;7336632;19;110953;-64
2023/10/28 10:44:20;;;;;;;;;;;15.70;99.90;;;;;;7333166;19;109028;-65
2023/10/28 10:46:48;;;;;;;;;;;15.70;99.90;;;;;;7330498;19;109574;-64
2023/10/28 10:49:15;;;;;;;;;;;15.70;99.90;;;;;;7333344;19;108945;-70
2023/10/28 10:51:43;;;;;;;;;;;15.80;99.90;;;;;;7334121;19;108665;-64
2023/10/28 10:54:10;;;;;;;;;;;15.80;99.90;;;;;;7334757;19;109428;-65
2023/10/28 10:56:37;;;;;;;;;;;15.90;99.90;;;;;;7334817;19;110681;-67
2023/10/28 10:59:04;;;;;;;;;;;16.00;99.90;;;;;;7332293;19;108955;-64
2023/10/28 11:01:31;;;;;;;;;;;16.10;99.90;;;;;;7333065;19;110363;-64
2023/10/28 11:04:01;;;;;;;;;;;16.10;99.90;;;;;;7337153;19;110973;-64
2023/10/28 11:06:29;;;;;;;;;;;16.20;99.90;;;;;;7330165;19;110092;-66
2023/10/28 11:08:57;;;;;;;;;;;16.20;99.90;;;;;;7334391;19;109948;-64
2023/10/28 11:11:25;;;;;;;;;;;16.20;99.90;;;;;;7332165;19;108853;-64
2023/10/28 11:13:52;;;;;;;;;;;16.20;99.90;;;;;;7334532;19;109091;-64
2023/10/28 11:16:23;;;;;;;;;;;16.20;99.90;;;;;;7332214;19;109650;-64
2023/10/28 11:18:50;;;;;;;;;;;16.10;99.90;;;;;;7335292;19;108401;-64
2023/10/28 11:21:21;;;;;;;;;;;16.00;99.90;;;;;;7329675;19;111050;-65
2023/10/28 11:23:48;;;;;;;;;;;16.00;99.90;;;;;;7333476;19;108762;-64
2023/10/28 11:26:19;;;;;;;;;;;15.90;99.90;;;;;;7336737;19;109127;-65
2023/10/28 11:28:46;;;;;;;;;;;15.90;99.90;;;;;;7334276;19;110633;-65
2023/10/28 11:31:18;;;;;;;;;;;16.00;99.90;;;;;;7327202;19;109690;-65
2023/10/28 11:33:45;;;;;;;;;;;16.00;99.90;;;;;;7334988;19;110399;-66
2023/10/28 11:36:12;;;;;;;;;;;16.20;99.90;;;;;;7333485;19;109079;-65
2023/10/28 11:38:39;;;;;;;;;;;16.20;99.90;;;;;;7330036;19;111271;-66
2023/10/28 11:41:07;;;;;;;;;;;16.40;99.90;;;;;;7334587;19;109563;-66
2023/10/28 11:43:34;;;;;;;;;;;16.50;99.90;;;;;;7331788;19;108802;-66
2023/10/28 11:46:02;;;;;;;;;;;16.50;99.90;;;;;;7330929;19;110397;-66
2023/10/28 11:48:33;;;;;;;;;;;16.50;99.90;;;;;;7335203;19;109526;-65
2023/10/28 11:51:00;;;;;;;;;;;16.50;99.90;;;;;;7335142;19;108452;-66
2023/10/28 11:53:28;;;;;;;;;;;16.50;99.90;;;;;;7332461;19;109678;-66
2023/10/28 11:55:55;;;;;;;;;;;16.50;99.90;;;;;;7331522;19;108859;-65
2023/10/28 11:58:26;;;;;;;;;;;16.60;99.90;;;;;;7330402;19;108820;-66
2023/10/28 12:00:55;;;;;;;;;;;16.70;99.90;;;;;;7331852;19;109365;-65
2023/10/28 12:03:23;;;;;;;;;;;16.90;99.90;;;;;;7329702;19;110543;-65
2023/10/28 12:05:50;;;;;;;;;;;17.00;99.90;;;;;;7333359;19;109283;-65
2023/10/28 12:08:18;;;;;;;;;;;17.20;99.90;;;;;;7323598;19;109279;-66
2023/10/28 12:10:45;;;;;;;;;;;17.40;99.90;;;;;;7336791;19;108868;-66
2023/10/28 12:13:12;;;;;;;;;;;17.50;99.90;;;;;;7329372;19;109425;-66
2023/10/28 12:15:40;;;;;;;;;;;17.60;99.90;;;;;;7335421;19;108468;-66
2023/10/28 12:18:07;;;;;;;;;;;17.70;99.90;;;;;;7329918;19;110418;-66
2023/10/28 12:20:35;;;;;;;;;;;17.80;99.90;;;;;;7334608;19;111051;-75
2023/10/28 12:23:03;;;;;;;;;;;17.90;99.90;;;;;;7330811;19;109629;-71
2023/10/28 12:25:30;;;;;;;;;;;17.90;99.90;;;;;;7335426;19;108719;-79
2023/10/28 12:27:57;;;;;;;;;;;18.00;99.90;;;;;;7332595;19;110769;-71
2023/10/28 12:30:24;;;;;;;;;;;18.10;99.90;;;;;;7337533;19;109198;-73
2023/10/28 12:32:51;;;;;;;;;;;18.20;99.90;;;;;;7333175;19;109826;-88
2023/10/28 12:35:19;;;;;;;;;;;18.30;99.90;;;;;;7327576;19;109566;-89
2023/10/28 12:37:46;;;;;;;;;;;18.30;99.90;;;;;;7313023;19;109276;-87
2023/10/28 12:40:14;;;;;;;;;;;18.30;99.90;;;;;;7320266;19;110715;-88
2023/10/28 12:42:41;;;;;;;;;;;18.30;99.90;;;;;;7325658;19;108816;-88
2023/10/28 12:45:09;;;;;;;;;;;18.30;99.90;;;;;;7322370;19;110471;-90
2023/10/28 12:47:36;;;;;;;;;;;18.20;99.90;;;;;;7323134;19;112549;-88
2023/10/28 12:50:04;;;;;;;;;;;18.10;99.90;;;;;;7323359;19;110848;-88
2023/10/28 12:52:31;;;;;;;;;;;18.00;99.90;;;;;;7332040;19;109162;-88
2023/10/28 12:55:03;;;;;;;;;;;17.90;99.90;;;;;;7323974;19;109354;-88
2023/10/28 12:57:31;;;;;;;;;;;17.90;99.90;;;;;;7324507;19;110987;-89
2023/10/28 12:59:58;;;;;;;;;;;17.80;99.90;;;;;;7322602;19;109611;-88
2023/10/28 13:02:25;;;;;;;;;;;17.80;99.90;;;;;;7323884;19;109383;-89
2023/10/28 13:04:52;;;;;;;;;;;17.70;99.90;;;;;;7322992;19;110727;-88
2023/10/28 13:15:40;;;;;;;;;;;17.50;99.90;;;;;;7333465;19;110983;-66
2023/10/28 13:18:07;;;;;;;;;;;17.50;99.90;;;;;;7327792;19;110248;-66
2023/10/28 13:20:34;;;;;;;;;;;17.60;99.90;;;;;;7335356;19;109393;-66
2023/10/28 13:23:01;;;;;;;;;;;17.60;99.90;;;;;;7331385;19;110098;-67
2023/10/28 13:25:29;;;;;;;;;;;17.60;99.90;;;;;;7337767;19;109394;-66
2023/10/28 13:27:57;;;;;;;;;;;17.60;99.90;;;;;;7336738;19;110128;-71
2023/10/28 13:30:24;;;;;;;;;;;17.50;99.90;;;;;;7332591;19;108491;-70
2023/10/28 13:32:51;;;;;;;;;;;17.40;99.90;;;;;;7337905;19;109164;-71
2023/10/28 13:35:22;;;;;;;;;;;17.30;99.90;;;;;;7335764;19;109148;-70
2023/10/28 13:37:50;;;;;;;;;;;17.30;99.90;;;;;;7344330;19;108831;-75
2023/10/28 13:40:17;;;;;;;;;;;17.30;99.90;;;;;;7334956;19;109592;-66
2023/10/28 13:42:45;;;;;;;;;;;17.30;99.90;;;;;;7339332;19;110182;-69
2023/10/28 13:45:12;;;;;;;;;;;17.30;99.90;;;;;;7335789;19;110698;-65
2023/10/28 13:47:41;;;;;;;;;;;17.30;99.90;;;;;;7337394;19;110986;-66
2023/10/28 13:52:38;;;;;;;;;;;17.30;99.90;;;;;;7334221;19;108931;-68
2023/10/28 13:55:06;;;;;;;;;;;17.30;99.90;;;;;;7334670;19;111289;-67
2023/10/28 13:57:33;;;;;;;;;;;17.30;99.90;;;;;;7335074;19;109138;-66
2023/10/28 14:00:05;;;;;;;;;;;17.30;99.90;;;;;;7337665;19;109197;-67
2023/10/28 14:05:16;;;;;;;;;;;17.20;99.90;;;;;;7326879;19;110360;-67
2023/10/28 14:07:43;;;;;;;;;;;17.20;99.90;;;;;;7337042;19;110837;-67
2023/10/28 14:10:11;;;;;;;;;;;17.20;99.90;;;;;;7327187;19;109200;-67
2023/10/28 14:12:41;;;;;;;;;;;17.10;99.90;;;;;;7330162;19;108648;-67
2023/10/28 14:15:10;;;;;;;;;;;17.00;99.90;;;;;;7330390;19;110708;-67
2023/10/28 14:17:40;;;;;;;;;;;17.00;99.90;;;;;;7331305;19;108920;-69
2023/10/28 14:20:11;;;;;;;;;;;17.00;99.90;;;;;;7338209;19;109179;-67
2023/10/28 14:22:41;;;;;;;;;;;17.00;99.90;;;;;;7331472;19;108962;-67
2023/10/28 14:25:08;;;;;;;;;;;17.10;99.90;;;;;;7330764;19;109002;-67
2023/10/28 14:27:35;;;;;;;;;;;17.10;99.90;;;;;;7333218;19;110756;-67
2023/10/28 14:30:04;;;;;;;;;;;17.30;99.90;;;;;;7336792;19;108518;-67
2023/10/28 14:32:35;;;;;;;;;;;17.40;99.90;;;;;;7331435;19;109420;-67
2023/10/28 14:35:07;;;;;;;;;;;17.50;99.90;;;;;;7333405;19;109875;-67
2023/10/28 14:37:36;;;;;;;;;;;17.60;99.90;;;;;;7330016;19;108844;-68
2023/10/28 14:40:05;;;;;;;;;;;17.80;99.90;;;;;;7335111;19;110769;-67
2023/10/28 14:42:36;;;;;;;;;;;17.90;99.90;;;;;;7339462;19;110394;-67
2023/10/28 14:45:05;;;;;;;;;;;18.10;99.90;;;;;;7331608;19;108772;-68